createdAt,value
2017-05-31T00:01:22.782Z,9.42
2017-05-31T00:03:51.597Z,8.30
2017-05-31T00:06:20.441Z,7.72
2017-05-31T00:08:49.249Z,8.18
2017-05-31T00:11:18.073Z,7.48
2017-05-31T00:13:46.901Z,8.46
2017-05-31T00:16:15.707Z,7.74
2017-05-31T00:18:44.560Z,8.42
2017-05-31T00:21:13.399Z,8.12
2017-05-31T00:23:42.200Z,8.08
2017-05-31T00:26:11.084Z,7.60
2017-05-31T00:28:39.888Z,7.76
2017-05-31T00:31:08.722Z,8.28
2017-05-31T00:33:37.570Z,8.60
2017-05-31T00:36:06.400Z,7.98
2017-05-31T00:38:35.230Z,8.08
2017-05-31T00:41:04.078Z,7.40
2017-05-31T00:43:32.888Z,8.14
2017-05-31T00:46:01.691Z,8.06
2017-05-31T00:48:30.542Z,8.02
2017-05-31T00:50:59.372Z,8.48
2017-05-31T00:53:28.299Z,7.54
2017-05-31T00:55:57.125Z,7.64
2017-05-31T00:58:25.960Z,7.94
2017-05-31T01:00:54.848Z,7.82
2017-05-31T01:03:23.665Z,8.72
2017-05-31T01:05:52.540Z,7.42
2017-05-31T01:08:21.395Z,8.32
2017-05-31T01:10:50.218Z,8.24
2017-05-31T01:13:19.059Z,8.16
2017-05-31T01:15:47.876Z,9.00
2017-05-31T01:18:16.701Z,8.74
2017-05-31T01:20:45.552Z,8.56
2017-05-31T01:23:14.364Z,8.24
2017-05-31T01:25:43.168Z,8.62
2017-05-31T01:28:12.012Z,8.62
2017-05-31T01:30:40.827Z,8.62
2017-05-31T01:33:09.640Z,8.60
2017-05-31T01:35:38.504Z,9.16
2017-05-31T01:38:07.320Z,8.68
2017-05-31T01:40:36.179Z,9.14
2017-05-31T01:43:04.987Z,8.74
2017-05-31T01:45:33.822Z,8.96
2017-05-31T01:48:02.663Z,9.16
2017-05-31T01:50:31.495Z,9.32
2017-05-31T01:53:00.385Z,9.30
2017-05-31T01:55:29.195Z,8.62
2017-05-31T01:57:58.017Z,8.56
2017-05-31T02:00:26.860Z,9.28
2017-05-31T02:02:55.667Z,9.02
2017-05-31T02:05:24.619Z,8.62
2017-05-31T02:07:53.460Z,9.28
2017-05-31T02:10:22.327Z,8.84
2017-05-31T02:12:51.137Z,9.14
2017-05-31T02:15:19.960Z,7.80
2017-05-31T02:17:48.794Z,8.62
2017-05-31T02:20:17.635Z,8.68
2017-05-31T02:22:46.468Z,8.42
2017-05-31T02:25:15.306Z,8.70
2017-05-31T02:27:44.143Z,8.56
2017-05-31T02:30:12.964Z,9.74
2017-05-31T02:32:41.782Z,7.98
2017-05-31T02:35:10.630Z,8.64
2017-05-31T02:37:39.436Z,9.10
2017-05-31T02:40:09.595Z,9.12
2017-05-31T02:42:38.661Z,8.32
2017-05-31T02:45:08.701Z,8.62
2017-05-31T02:47:37.784Z,8.56
2017-05-31T02:50:06.598Z,8.60
2017-05-31T02:52:35.418Z,8.68
2017-05-31T02:55:04.244Z,8.56
2017-05-31T02:57:33.073Z,8.38
2017-05-31T03:00:01.917Z,9.08
2017-05-31T03:02:30.767Z,8.82
2017-05-31T03:04:59.589Z,9.00
2017-05-31T03:07:28.406Z,8.98
2017-05-31T03:09:57.240Z,8.06
2017-05-31T03:12:26.064Z,8.36
2017-05-31T03:14:54.875Z,7.98
2017-05-31T03:17:23.727Z,8.34
2017-05-31T03:19:52.538Z,8.30
2017-05-31T03:22:21.385Z,9.00
2017-05-31T03:24:50.203Z,8.92
2017-05-31T03:27:19.016Z,8.76
2017-05-31T03:29:47.856Z,8.68
2017-05-31T03:32:16.667Z,8.74
2017-05-31T03:34:45.515Z,9.22
2017-05-31T03:37:14.318Z,9.30
2017-05-31T03:39:43.147Z,9.10
2017-05-31T03:42:11.992Z,9.40
2017-05-31T03:44:40.826Z,8.78
2017-05-31T03:47:09.616Z,8.50
2017-05-31T03:49:38.484Z,8.44
2017-05-31T03:52:07.294Z,9.08
2017-05-31T03:54:36.108Z,8.94
2017-05-31T03:57:04.961Z,8.70
2017-05-31T03:59:33.775Z,8.38
2017-05-31T04:02:02.593Z,9.34
2017-05-31T04:04:31.432Z,8.58
2017-05-31T04:07:00.248Z,8.84
2017-05-31T04:09:29.072Z,9.12
2017-05-31T04:11:57.911Z,8.50
2017-05-31T04:14:26.800Z,9.50
2017-05-31T04:16:55.627Z,8.32
2017-05-31T04:19:24.463Z,8.82
2017-05-31T04:21:53.275Z,8.36
2017-05-31T04:24:22.128Z,8.66
2017-05-31T04:26:50.936Z,8.84
2017-05-31T04:29:19.771Z,8.54
2017-05-31T04:31:48.640Z,8.76
2017-05-31T04:34:18.581Z,8.46
2017-05-31T04:36:48.640Z,7.90
2017-05-31T04:39:17.615Z,7.60
2017-05-31T04:41:46.424Z,7.60
2017-05-31T04:44:15.246Z,8.18
2017-05-31T04:46:44.091Z,8.62
2017-05-31T04:49:12.907Z,8.12
2017-05-31T04:51:41.748Z,7.94
2017-05-31T04:54:10.559Z,7.98
2017-05-31T04:56:39.372Z,8.16
2017-05-31T04:59:08.218Z,8.38
2017-05-31T05:01:37.057Z,12.30
2017-05-31T05:04:05.863Z,8.44
2017-05-31T05:06:34.731Z,8.02
2017-05-31T05:09:03.543Z,8.56
2017-05-31T05:11:32.344Z,8.66
2017-05-31T05:14:01.179Z,8.54
2017-05-31T05:16:30.003Z,9.32
2017-05-31T05:18:58.873Z,8.80
2017-05-31T05:21:27.809Z,8.68
2017-05-31T05:23:56.626Z,7.68
2017-05-31T05:26:25.477Z,8.32
2017-05-31T05:28:54.290Z,9.08
2017-05-31T05:31:23.120Z,8.86
2017-05-31T05:33:51.985Z,9.28
2017-05-31T05:36:20.807Z,8.52
2017-05-31T05:38:49.604Z,9.12
2017-05-31T05:41:18.456Z,8.90
2017-05-31T05:43:47.297Z,9.42
2017-05-31T05:46:25.927Z,9.42
2017-05-31T05:48:54.777Z,8.56
2017-05-31T05:51:23.626Z,9.38
2017-05-31T05:53:52.439Z,9.18
2017-05-31T05:56:21.277Z,8.90
2017-05-31T05:58:50.094Z,8.94
2017-05-31T06:01:18.935Z,8.50
2017-05-31T06:03:47.753Z,9.30
2017-05-31T06:06:16.596Z,8.84
2017-05-31T06:08:45.440Z,8.74
2017-05-31T06:11:15.127Z,8.90
2017-05-31T06:13:43.937Z,9.34
2017-05-31T06:16:12.773Z,8.38
2017-05-31T06:18:41.584Z,8.36
2017-05-31T06:21:10.401Z,8.84
2017-05-31T06:23:39.352Z,9.28
2017-05-31T06:26:08.216Z,9.40
2017-05-31T06:28:37.046Z,8.78
2017-05-31T06:31:05.942Z,8.30
2017-05-31T06:33:34.744Z,8.96
2017-05-31T06:36:03.558Z,9.40
2017-05-31T06:38:33.116Z,8.34
2017-05-31T06:41:03.964Z,9.08
2017-05-31T06:43:33.537Z,9.42
2017-05-31T06:46:02.851Z,8.70
2017-05-31T06:48:31.940Z,9.16
2017-05-31T06:51:01.019Z,9.12
2017-05-31T06:53:30.033Z,8.96
2017-05-31T06:55:58.971Z,8.14
2017-05-31T06:58:27.846Z,9.64
2017-05-31T07:00:56.867Z,8.22
2017-05-31T07:03:25.930Z,9.26
2017-05-31T07:05:54.952Z,9.54
2017-05-31T07:08:23.988Z,9.84
2017-05-31T07:10:53.224Z,8.84
2017-05-31T07:13:22.563Z,7.92
2017-05-31T07:15:51.796Z,8.68
2017-05-31T07:18:20.821Z,8.28
2017-05-31T07:20:49.656Z,8.96
2017-05-31T07:23:18.772Z,8.70
2017-05-31T07:25:47.787Z,9.38
2017-05-31T07:28:16.737Z,9.10
2017-05-31T07:30:45.655Z,8.88
2017-05-31T07:33:14.609Z,8.88
2017-05-31T07:35:43.577Z,9.34
2017-05-31T07:38:12.490Z,8.22
2017-05-31T07:40:41.311Z,8.40
2017-05-31T07:43:10.123Z,9.32
2017-05-31T07:45:39.407Z,8.80
2017-05-31T07:48:08.218Z,9.50
2017-05-31T07:50:37.028Z,8.78
2017-05-31T07:53:05.938Z,8.84
2017-05-31T07:55:35.165Z,9.18
2017-05-31T07:58:04.310Z,9.40
2017-05-31T08:00:33.290Z,8.88
2017-05-31T08:03:02.284Z,8.92
2017-05-31T08:05:31.362Z,8.74
2017-05-31T08:08:00.463Z,9.80
2017-05-31T08:10:29.512Z,10.06
2017-05-31T08:12:58.609Z,7.88
2017-05-31T08:15:27.553Z,8.68
2017-05-31T08:17:56.415Z,7.88
2017-05-31T08:20:25.249Z,7.50
2017-05-31T08:22:54.045Z,8.36
2017-05-31T08:25:22.897Z,8.24
2017-05-31T08:27:51.706Z,8.16
2017-05-31T08:30:20.517Z,7.62
2017-05-31T08:32:49.545Z,8.40
2017-05-31T08:35:18.403Z,8.04
2017-05-31T08:37:47.435Z,7.74
2017-05-31T08:40:16.268Z,7.82
2017-05-31T08:42:45.075Z,8.10
2017-05-31T08:45:13.893Z,8.06
2017-05-31T08:47:42.712Z,8.06
2017-05-31T08:50:11.517Z,7.50
2017-05-31T08:52:40.390Z,8.24
2017-05-31T08:55:09.208Z,8.02
2017-05-31T08:57:38.053Z,8.08
2017-05-31T09:00:06.857Z,7.20
2017-05-31T09:02:35.744Z,7.76
2017-05-31T09:05:05.792Z,8.00
2017-05-31T09:07:34.759Z,7.98
2017-05-31T09:10:05.004Z,8.88
2017-05-31T09:12:34.266Z,7.72
2017-05-31T09:15:03.562Z,8.04
2017-05-31T09:17:32.778Z,7.86
2017-05-31T09:20:02.042Z,7.92
2017-05-31T09:22:30.984Z,8.14
2017-05-31T09:24:59.933Z,7.92
2017-05-31T09:27:28.918Z,7.78
2017-05-31T09:29:57.821Z,7.78
2017-05-31T09:32:26.696Z,7.72
2017-05-31T09:34:55.506Z,7.64
2017-05-31T09:37:25.739Z,7.96
2017-05-31T09:39:54.536Z,7.96
2017-05-31T09:42:23.363Z,7.38
2017-05-31T09:44:52.197Z,7.52
2017-05-31T09:47:21.006Z,7.40
2017-05-31T09:49:49.884Z,6.78
2017-05-31T09:52:19.339Z,7.56
2017-05-31T09:54:48.137Z,7.46
2017-05-31T09:57:17.793Z,8.58
2017-05-31T09:59:47.268Z,7.88
2017-05-31T10:02:16.647Z,7.66
2017-05-31T10:04:45.725Z,8.18
2017-05-31T10:07:15.742Z,7.20
2017-05-31T10:09:44.601Z,7.34
2017-05-31T10:12:13.421Z,8.04
2017-05-31T10:14:42.235Z,8.04
2017-05-31T10:17:12.187Z,8.14
2017-05-31T10:19:41.006Z,7.46
2017-05-31T10:22:09.845Z,7.72
2017-05-31T10:24:38.658Z,6.44
2017-05-31T10:27:07.463Z,7.36
2017-05-31T10:29:36.303Z,7.40
2017-05-31T10:32:05.144Z,6.92
2017-05-31T10:34:33.972Z,7.32
2017-05-31T10:37:02.824Z,7.10
2017-05-31T10:39:31.664Z,7.38
2017-05-31T10:42:00.463Z,7.00
2017-05-31T10:44:29.312Z,8.62
2017-05-31T10:46:58.120Z,7.10
2017-05-31T10:49:26.979Z,7.90
2017-05-31T10:51:55.893Z,7.76
2017-05-31T10:54:24.695Z,7.02
2017-05-31T10:56:53.560Z,7.66
2017-05-31T10:59:22.392Z,7.40
2017-05-31T11:01:51.224Z,7.02
2017-05-31T11:04:20.028Z,7.96
2017-05-31T11:06:48.828Z,6.70
2017-05-31T11:09:17.691Z,6.84
2017-05-31T11:11:46.592Z,6.94
2017-05-31T11:14:15.441Z,6.82
2017-05-31T11:16:44.265Z,7.40
2017-05-31T11:19:14.685Z,6.92
2017-05-31T11:21:43.554Z,6.90
2017-05-31T11:24:13.153Z,6.78
2017-05-31T11:26:43.072Z,6.76
2017-05-31T11:29:15.170Z,6.40
2017-05-31T11:31:43.993Z,7.02
2017-05-31T11:34:12.826Z,7.08
2017-05-31T11:36:41.655Z,6.84
2017-05-31T11:39:10.475Z,6.90
2017-05-31T11:41:39.287Z,7.82
2017-05-31T11:44:08.139Z,6.06
2017-05-31T11:46:36.958Z,6.30
2017-05-31T11:49:05.789Z,6.54
2017-05-31T11:51:34.659Z,6.18
2017-05-31T11:54:03.480Z,6.86
2017-05-31T11:56:32.833Z,6.60
2017-05-31T11:59:01.692Z,6.66
2017-05-31T12:01:30.516Z,6.68
2017-05-31T12:04:00.493Z,6.40
2017-05-31T12:06:29.344Z,5.92
2017-05-31T12:08:58.151Z,6.66
2017-05-31T12:11:27.434Z,6.02
2017-05-31T12:13:56.836Z,7.42
2017-05-31T12:16:28.405Z,6.94
2017-05-31T12:19:01.104Z,6.96
2017-05-31T12:21:30.156Z,5.84
2017-05-31T12:23:59.456Z,6.32
2017-05-31T12:26:28.263Z,6.40
2017-05-31T12:28:57.071Z,6.10
2017-05-31T12:31:25.918Z,5.52
2017-05-31T12:33:54.754Z,5.06
2017-05-31T12:36:23.583Z,5.30
2017-05-31T12:38:52.455Z,5.54
2017-05-31T12:41:21.252Z,5.36
2017-05-31T12:43:50.078Z,5.68
2017-05-31T12:46:19.342Z,5.36
2017-05-31T12:48:48.170Z,5.62
2017-05-31T12:51:17.036Z,5.00
2017-05-31T12:53:46.393Z,4.98
2017-05-31T12:56:15.203Z,5.56
2017-05-31T12:58:44.067Z,5.14
2017-05-31T13:01:12.923Z,5.28
2017-05-31T13:03:41.733Z,5.70
2017-05-31T13:06:10.560Z,5.28
2017-05-31T13:08:39.373Z,5.70
2017-05-31T13:11:08.183Z,5.10
2017-05-31T13:13:37.039Z,4.60
2017-05-31T13:16:05.868Z,4.92
2017-05-31T13:18:34.676Z,4.80
2017-05-31T13:21:03.504Z,5.16
2017-05-31T13:23:32.317Z,5.18
2017-05-31T13:26:01.165Z,4.90
2017-05-31T13:28:29.965Z,5.10
2017-05-31T13:30:58.779Z,5.00
2017-05-31T13:33:27.621Z,5.08
2017-05-31T13:35:57.478Z,5.48
2017-05-31T13:38:26.328Z,4.72
2017-05-31T13:40:55.158Z,5.54
2017-05-31T13:43:23.968Z,4.66
2017-05-31T13:45:54.248Z,5.42
2017-05-31T13:48:23.055Z,4.80
2017-05-31T13:50:51.861Z,4.72
2017-05-31T13:53:20.718Z,5.08
2017-05-31T13:55:49.543Z,5.14
2017-05-31T13:58:18.349Z,4.24
2017-05-31T14:00:47.211Z,4.98
2017-05-31T14:03:16.008Z,4.78
2017-05-31T14:05:44.830Z,4.80
2017-05-31T14:08:13.687Z,4.60
2017-05-31T14:10:42.493Z,4.50
2017-05-31T14:13:11.308Z,4.00
2017-05-31T14:15:40.168Z,4.58
2017-05-31T14:18:09.320Z,4.26
2017-05-31T14:20:38.564Z,4.80
2017-05-31T14:23:07.396Z,4.42
2017-05-31T14:25:36.206Z,4.74
2017-05-31T14:28:05.285Z,4.22
2017-05-31T14:30:34.138Z,4.58
2017-05-31T14:33:02.976Z,4.50
2017-05-31T14:35:32.043Z,4.30
2017-05-31T14:38:00.873Z,4.42
2017-05-31T14:40:29.691Z,4.08
2017-05-31T14:42:58.549Z,3.88
2017-05-31T14:45:27.371Z,4.40
2017-05-31T14:47:56.219Z,4.34
2017-05-31T14:50:25.261Z,3.80
2017-05-31T14:52:54.311Z,4.00
2017-05-31T14:55:23.149Z,4.70
2017-05-31T14:57:51.993Z,3.94
2017-05-31T15:00:20.808Z,4.10
2017-05-31T15:02:49.634Z,4.56
2017-05-31T15:05:18.451Z,4.06
2017-05-31T15:07:47.273Z,4.04
2017-05-31T15:10:16.116Z,4.62
2017-05-31T15:12:44.939Z,4.12
2017-05-31T15:15:13.740Z,4.56
2017-05-31T15:17:42.601Z,5.00
2017-05-31T15:20:11.421Z,5.20
2017-05-31T15:22:40.226Z,3.88
2017-05-31T15:25:09.084Z,4.30
2017-05-31T15:27:37.909Z,3.76
2017-05-31T15:30:06.717Z,3.90
2017-05-31T15:32:35.586Z,4.08
2017-05-31T15:35:06.241Z,3.80
2017-05-31T15:37:35.219Z,3.90
2017-05-31T15:40:06.267Z,3.80
2017-05-31T15:42:35.086Z,4.00
2017-05-31T15:45:05.140Z,3.84
2017-05-31T15:47:35.262Z,3.94
2017-05-31T15:50:05.558Z,3.80
2017-05-31T15:52:34.399Z,3.50
2017-05-31T15:55:03.238Z,4.10
2017-05-31T15:57:32.083Z,4.68
2017-05-31T16:00:01.200Z,4.58
2017-05-31T16:02:31.281Z,4.38
2017-05-31T16:05:01.398Z,3.74
2017-05-31T16:07:32.287Z,4.12
2017-05-31T16:10:02.387Z,4.14
2017-05-31T16:12:32.489Z,4.02
2017-05-31T16:15:01.331Z,3.60
2017-05-31T16:17:30.140Z,3.24
2017-05-31T16:19:58.970Z,3.66
2017-05-31T16:22:27.800Z,3.82
2017-05-31T16:24:57.007Z,3.62
2017-05-31T16:27:25.846Z,3.30
2017-05-31T16:29:58.517Z,3.72
2017-05-31T16:32:28.954Z,3.46
2017-05-31T16:34:57.801Z,3.30
2017-05-31T16:37:26.616Z,3.38
2017-05-31T16:39:55.429Z,6.40
2017-05-31T16:42:24.298Z,3.86
2017-05-31T16:44:53.119Z,6.04
2017-05-31T16:47:21.939Z,3.54
2017-05-31T16:49:51.102Z,3.46
2017-05-31T16:52:20.183Z,3.52
2017-05-31T16:54:49.003Z,3.50
2017-05-31T16:57:18.936Z,3.96
2017-05-31T16:59:47.728Z,4.14
2017-05-31T17:02:16.572Z,4.68
2017-05-31T17:04:45.401Z,4.02
2017-05-31T17:07:15.738Z,4.36
2017-05-31T17:09:44.541Z,3.50
2017-05-31T17:12:13.677Z,3.92
2017-05-31T17:14:42.536Z,3.96
2017-05-31T17:17:11.357Z,4.20
2017-05-31T17:19:40.209Z,3.42
2017-05-31T17:22:10.371Z,4.14
2017-05-31T17:24:39.185Z,3.50
2017-05-31T17:27:08.020Z,3.84
2017-05-31T17:29:36.982Z,3.60
2017-05-31T17:32:05.807Z,3.88
2017-05-31T17:34:34.632Z,3.64
2017-05-31T17:37:03.463Z,3.68
2017-05-31T17:39:32.311Z,2.80
2017-05-31T17:42:01.144Z,3.12
2017-05-31T17:44:29.973Z,3.80
2017-05-31T17:46:58.836Z,3.24
2017-05-31T17:49:27.661Z,2.90
2017-05-31T17:51:56.506Z,3.10
2017-05-31T17:54:25.313Z,3.30
2017-05-31T17:56:54.127Z,3.08
2017-05-31T17:59:22.962Z,2.96
2017-05-31T18:01:51.792Z,3.64
2017-05-31T18:04:20.596Z,2.80
2017-05-31T18:06:49.463Z,3.34
2017-05-31T18:09:18.288Z,3.12
2017-05-31T18:11:47.383Z,3.06
2017-05-31T18:14:16.249Z,3.06
2017-05-31T18:16:45.099Z,2.88
2017-05-31T18:19:14.098Z,3.00
2017-05-31T18:21:44.425Z,2.90
2017-05-31T18:24:14.694Z,3.02
2017-05-31T18:26:45.949Z,2.90
2017-05-31T18:29:14.897Z,3.12
2017-05-31T18:31:43.709Z,2.94
2017-05-31T18:34:12.541Z,3.12
2017-05-31T18:36:41.382Z,3.04
2017-05-31T18:39:10.213Z,2.88
2017-05-31T18:41:39.063Z,3.22
2017-05-31T18:44:07.895Z,3.08
2017-05-31T18:46:36.702Z,3.10
2017-05-31T18:49:05.556Z,2.70
2017-05-31T18:51:34.394Z,3.22
2017-05-31T18:54:04.012Z,3.46
2017-05-31T18:56:32.819Z,3.24
2017-05-31T18:59:01.677Z,3.66
2017-05-31T19:01:30.506Z,3.54
2017-05-31T19:03:59.311Z,3.30
2017-05-31T19:06:28.155Z,3.40
2017-05-31T19:08:56.974Z,3.02
2017-05-31T19:11:25.856Z,3.76
2017-05-31T19:13:54.672Z,3.28
2017-05-31T19:16:23.478Z,2.90
2017-05-31T19:18:52.335Z,3.64
2017-05-31T19:21:21.169Z,3.64
2017-05-31T19:23:50.031Z,3.46
2017-05-31T19:26:18.828Z,3.54
2017-05-31T19:28:47.700Z,3.70
2017-05-31T19:31:16.549Z,3.84
2017-05-31T19:33:45.368Z,4.44
2017-05-31T19:36:14.391Z,4.36
2017-05-31T19:38:43.241Z,4.68
2017-05-31T19:41:12.082Z,4.58
2017-05-31T19:43:40.916Z,4.38
2017-05-31T19:46:09.815Z,5.08
2017-05-31T19:48:38.697Z,5.00
2017-05-31T19:51:07.671Z,5.36
2017-05-31T19:53:36.542Z,5.46
2017-05-31T19:56:05.388Z,6.20
2017-05-31T19:58:34.220Z,6.80
2017-05-31T20:01:03.384Z,6.80
2017-05-31T20:03:32.209Z,7.56
2017-05-31T20:06:01.048Z,7.02
2017-05-31T20:08:29.858Z,6.72
2017-05-31T20:10:58.701Z,7.34
2017-05-31T20:13:27.571Z,6.38
2017-05-31T20:15:56.413Z,6.94
2017-05-31T20:18:25.222Z,7.40
2017-05-31T20:20:54.079Z,7.04
2017-05-31T20:23:22.915Z,7.98
2017-05-31T20:25:51.769Z,7.26
2017-05-31T20:28:20.583Z,7.42
2017-05-31T20:30:49.420Z,7.76
2017-05-31T20:33:18.272Z,6.60
2017-05-31T20:35:47.168Z,7.08
2017-05-31T20:38:15.991Z,7.62
2017-05-31T20:40:44.827Z,7.20
2017-05-31T20:43:13.721Z,7.56
2017-05-31T20:45:42.586Z,7.64
2017-05-31T20:48:11.399Z,7.26
2017-05-31T20:50:40.204Z,7.74
2017-05-31T20:53:09.102Z,8.04
2017-05-31T20:55:37.912Z,7.60
2017-05-31T20:58:06.730Z,7.50
2017-05-31T21:00:35.597Z,7.70
2017-05-31T21:03:04.421Z,7.96
2017-05-31T21:05:33.233Z,7.22
2017-05-31T21:08:02.076Z,7.00
2017-05-31T21:10:38.181Z,7.14
2017-05-31T21:13:07.021Z,8.00
2017-05-31T21:15:37.698Z,7.46
2017-05-31T21:18:06.525Z,7.46
2017-05-31T21:20:35.367Z,7.52
2017-05-31T21:23:04.192Z,7.90
2017-05-31T21:25:33.013Z,6.94
2017-05-31T21:28:01.837Z,7.44
2017-05-31T21:30:30.648Z,7.72
2017-05-31T21:32:59.485Z,7.56
2017-05-31T21:35:28.298Z,7.82
2017-05-31T21:37:57.113Z,8.02
2017-05-31T21:40:25.998Z,7.96
2017-05-31T21:42:54.796Z,7.54
2017-05-31T21:45:23.596Z,7.30
2017-05-31T21:47:52.417Z,7.50
2017-05-31T21:50:21.235Z,7.62
2017-05-31T21:52:50.075Z,7.88
2017-05-31T21:55:20.071Z,7.64
2017-05-31T21:57:49.014Z,7.98
2017-05-31T22:00:17.863Z,8.06
2017-05-31T22:02:46.685Z,8.10
2017-05-31T22:05:15.495Z,7.62
2017-05-31T22:07:44.332Z,7.88
2017-05-31T22:10:13.153Z,8.10
2017-05-31T22:12:41.966Z,7.54
2017-05-31T22:15:10.808Z,7.68
2017-05-31T22:17:39.617Z,7.72
2017-05-31T22:20:08.462Z,7.66
2017-05-31T22:22:37.271Z,8.58
2017-05-31T22:25:06.077Z,8.86
2017-05-31T22:27:34.913Z,8.72
2017-05-31T22:30:03.717Z,8.22
2017-05-31T22:32:32.517Z,8.02
2017-05-31T22:35:01.348Z,8.20
2017-05-31T22:37:30.151Z,8.50
2017-05-31T22:39:58.995Z,8.02
2017-05-31T22:42:27.796Z,7.52
2017-05-31T22:44:56.605Z,8.30
2017-05-31T22:47:25.436Z,8.76
2017-05-31T22:49:54.243Z,8.12
2017-05-31T22:52:23.160Z,8.48
2017-05-31T22:54:51.973Z,8.40
2017-05-31T22:57:20.818Z,9.32
2017-05-31T22:59:49.658Z,8.40
2017-05-31T23:02:18.474Z,8.34
2017-05-31T23:04:47.326Z,8.02
2017-05-31T23:07:16.148Z,8.40
2017-05-31T23:09:44.944Z,8.54
2017-05-31T23:12:13.793Z,9.36
2017-05-31T23:14:42.599Z,8.88
2017-05-31T23:17:11.419Z,9.32
2017-05-31T23:19:40.262Z,7.98
2017-05-31T23:22:09.077Z,9.26
2017-05-31T23:24:37.887Z,8.44
2017-05-31T23:27:06.761Z,9.12
2017-05-31T23:29:35.596Z,9.00
2017-05-31T23:32:04.393Z,9.46
2017-05-31T23:34:33.272Z,9.58
2017-05-31T23:37:02.717Z,9.80
2017-05-31T23:39:31.559Z,8.82
2017-05-31T23:42:00.383Z,8.90
2017-05-31T23:44:29.187Z,8.50
2017-05-31T23:46:58.028Z,8.42
2017-05-31T23:49:26.850Z,8.18
2017-05-31T23:51:55.692Z,9.38
2017-05-31T23:54:24.511Z,9.12
2017-05-31T23:56:53.335Z,9.08
2017-05-31T23:59:22.181Z,9.76
